Terminal Aerodrome Forecast
Issued by NWS Northern Indiana

Home | Current Version | Previous Version | Text Only | Print | Product List | Glossary Off
Versions: 1 2 3 4 5 6 7 8 9 10 11 12

559
FTUS43 KIWX 231120
TAFFWA
TAF
KFWA 231120Z 2312/2412 VRB03KT P6SM SKC
     FM231500 19007KT P6SM SCT050 SCT250=

USA.gov is the U.S. government's official web portal to all federal, state and local government web resources and services.